createdAt,value
2022-12-05T00:01:50.222Z,91.97
2022-12-05T00:04:21.516Z,92.68
2022-12-05T00:06:49.313Z,93.38
2022-12-05T00:09:17.320Z,93.41
2022-12-05T00:11:46.461Z,92.60
2022-12-05T00:14:17.057Z,92.62
2022-12-05T00:16:45.809Z,92.37
2022-12-05T00:19:16.206Z,92.93
2022-12-05T00:21:44.993Z,93.06
2022-12-05T00:24:16.139Z,93.46
2022-12-05T00:26:44.640Z,93.02
2022-12-05T00:29:12.564Z,93.63
2022-12-05T00:31:41.029Z,93.36
2022-12-05T00:34:11.941Z,90.99
2022-12-05T00:36:40.599Z,93.34
2022-12-05T00:39:12.355Z,93.60
2022-12-05T00:41:40.611Z,94.44
2022-12-05T00:44:09.502Z,93.18
2022-12-05T00:46:37.545Z,92.89
2022-12-05T00:49:07.773Z,93.72
2022-12-05T00:51:38.809Z,93.67
2022-12-05T00:54:11.149Z,93.74
2022-12-05T00:56:39.249Z,93.94
2022-12-05T00:59:08.147Z,93.88
2022-12-05T01:01:41.735Z,94.08
2022-12-05T01:04:27.975Z,94.11
2022-12-05T01:06:57.386Z,93.88
2022-12-05T01:09:26.047Z,93.38
2022-12-05T01:11:54.317Z,93.29
2022-12-05T01:14:23.827Z,93.24
2022-12-05T01:16:54.274Z,92.83
2022-12-05T01:19:28.560Z,93.23
2022-12-05T01:21:57.791Z,93.32
2022-12-05T01:24:27.289Z,92.38
2022-12-05T01:26:55.225Z,93.10
2022-12-05T01:29:24.928Z,93.15
2022-12-05T01:31:53.549Z,93.12
2022-12-05T01:34:21.820Z,92.85
2022-12-05T01:36:50.173Z,93.10
2022-12-05T01:39:18.100Z,92.38
2022-12-05T01:41:48.524Z,93.10
2022-12-05T01:44:16.614Z,92.38
2022-12-05T01:46:49.168Z,93.58
2022-12-05T01:49:34.107Z,93.44
2022-12-05T01:52:07.944Z,93.25
2022-12-05T01:54:38.461Z,93.02
2022-12-05T01:57:15.175Z,92.95
2022-12-05T01:59:48.038Z,92.83
2022-12-05T02:02:16.832Z,92.46
2022-12-05T02:04:56.793Z,92.53
2022-12-05T02:07:28.182Z,92.88
2022-12-05T02:09:56.668Z,92.91
2022-12-05T02:12:25.415Z,92.29
2022-12-05T02:15:17.088Z,92.75
2022-12-05T02:18:06.842Z,92.64
2022-12-05T02:20:34.524Z,93.11
2022-12-05T02:23:30.586Z,93.41
2022-12-05T02:26:28.833Z,93.04
2022-12-05T02:29:19.198Z,92.97
2022-12-05T02:32:08.479Z,92.19
2022-12-05T02:34:49.523Z,93.59
2022-12-05T02:37:26.439Z,93.48
2022-12-05T02:40:22.685Z,93.00
2022-12-05T02:43:01.669Z,94.04
2022-12-05T02:45:37.178Z,93.86
2022-12-05T02:48:07.178Z,92.55
2022-12-05T02:50:38.907Z,93.46
2022-12-05T02:53:13.626Z,93.56
2022-12-05T02:55:43.258Z,93.71
2022-12-05T02:58:20.655Z,93.27
2022-12-05T03:00:53.598Z,93.39
2022-12-05T03:03:23.848Z,93.11
2022-12-05T03:06:09.822Z,93.44
2022-12-05T03:08:54.440Z,93.71
2022-12-05T03:11:23.032Z,90.10
2022-12-05T03:13:58.105Z,94.04
2022-12-05T03:16:48.065Z,93.87
2022-12-05T03:19:21.121Z,93.53
2022-12-05T03:21:58.373Z,93.08
2022-12-05T03:24:26.423Z,93.15
2022-12-05T03:27:35.867Z,92.75
2022-12-05T03:30:13.822Z,92.99
2022-12-05T03:33:00.636Z,92.41
2022-12-05T03:35:28.395Z,92.79
2022-12-05T03:38:22.271Z,92.48
2022-12-05T03:41:08.567Z,92.25
2022-12-05T03:43:57.927Z,93.42
2022-12-05T03:46:36.541Z,93.42
2022-12-05T03:49:34.274Z,92.80
2022-12-05T03:52:56.890Z,93.26
2022-12-05T03:55:30.003Z,91.98
2022-12-05T03:58:09.562Z,93.58
2022-12-05T04:00:42.867Z,92.88
2022-12-05T04:03:39.823Z,92.63
2022-12-05T04:06:43.409Z,92.11
2022-12-05T04:09:31.384Z,92.67
2022-12-05T04:12:05.924Z,92.34
2022-12-05T04:14:43.744Z,92.55
2022-12-05T04:17:53.492Z,92.26
2022-12-05T04:20:48.239Z,91.45
2022-12-05T04:23:17.063Z,92.87
2022-12-05T04:26:09.436Z,92.87
2022-12-05T04:29:02.086Z,92.38
2022-12-05T04:31:40.681Z,92.29
2022-12-05T04:34:13.580Z,92.16
2022-12-05T04:36:52.297Z,91.90
2022-12-05T04:39:44.502Z,91.98
2022-12-05T04:42:16.366Z,92.31
2022-12-05T04:44:56.278Z,91.83
2022-12-05T04:47:31.149Z,92.00
2022-12-05T04:50:04.799Z,92.81
2022-12-05T04:52:34.770Z,92.95
2022-12-05T04:55:15.733Z,92.41
2022-12-05T04:57:51.844Z,92.02
2022-12-05T05:00:19.734Z,92.18
2022-12-05T05:03:10.933Z,92.21
2022-12-05T05:05:40.598Z,91.46
2022-12-05T05:08:19.520Z,92.45
2022-12-05T05:11:27.576Z,91.95
2022-12-05T05:13:56.321Z,91.69
2022-12-05T05:16:27.813Z,90.81
2022-12-05T05:18:56.568Z,92.69
2022-12-05T05:21:28.433Z,92.45
2022-12-05T05:23:57.642Z,92.57
2022-12-05T05:26:26.902Z,92.90
2022-12-05T05:28:55.090Z,91.84
2022-12-05T05:31:23.385Z,92.22
2022-12-05T05:33:52.818Z,93.27
2022-12-05T05:36:22.108Z,92.60
2022-12-05T05:38:53.383Z,90.61
2022-12-05T05:41:26.704Z,92.70
2022-12-05T05:43:55.920Z,92.28
2022-12-05T05:46:27.030Z,92.84
2022-12-05T05:48:57.007Z,92.36
2022-12-05T05:51:29.645Z,92.27
2022-12-05T05:54:00.909Z,91.59
2022-12-05T05:56:29.814Z,89.50
2022-12-05T05:59:00.642Z,92.09
2022-12-05T06:01:29.826Z,92.48
2022-12-05T06:03:59.042Z,93.87
2022-12-05T06:06:27.329Z,92.43
2022-12-05T06:08:55.398Z,92.51
2022-12-05T06:11:26.958Z,90.58
2022-12-05T06:13:56.765Z,93.81
2022-12-05T06:16:25.538Z,93.47
2022-12-05T06:18:53.892Z,91.40
2022-12-05T06:21:22.856Z,92.72
2022-12-05T06:23:51.401Z,92.40
2022-12-05T06:26:20.949Z,91.67
2022-12-05T06:28:49.407Z,91.30
2022-12-05T06:31:23.130Z,91.50
2022-12-05T06:33:51.111Z,92.15
2022-12-05T06:36:21.975Z,91.23
2022-12-05T06:38:49.732Z,91.58
2022-12-05T06:41:20.692Z,91.75
2022-12-05T06:43:48.812Z,91.39
2022-12-05T06:46:17.128Z,91.00
2022-12-05T06:48:45.333Z,90.90
2022-12-05T06:51:16.684Z,89.48
2022-12-05T06:53:45.049Z,85.91
2022-12-05T06:56:16.920Z,85.59
2022-12-05T06:58:47.056Z,90.04
2022-12-05T07:04:15.931Z,93.54
2022-12-05T07:06:50.165Z,92.76
2022-12-05T07:09:20.849Z,90.86
2022-12-05T07:11:50.644Z,88.63
2022-12-05T07:14:45.827Z,85.44
2022-12-05T07:17:07.222Z,88.04
2022-12-05T07:19:35.355Z,86.30
2022-12-05T07:22:03.457Z,85.67
2022-12-05T07:24:31.692Z,91.04
2022-12-05T07:27:02.746Z,89.97
2022-12-05T07:29:30.694Z,87.58
2022-12-05T07:31:59.395Z,89.76
2022-12-05T07:34:27.268Z,89.62
2022-12-05T07:36:55.200Z,87.95
2022-12-05T07:39:26.059Z,87.68
2022-12-05T07:41:57.025Z,86.04
2022-12-05T07:44:29.584Z,92.80
2022-12-05T07:47:00.554Z,89.46
2022-12-05T07:49:28.859Z,87.14
2022-12-05T07:51:57.307Z,89.81
2022-12-05T07:54:25.098Z,90.37
2022-12-05T07:56:53.398Z,90.10
2022-12-05T07:59:21.235Z,87.83
2022-12-05T08:01:49.086Z,91.04
2022-12-05T08:04:20.660Z,91.10
2022-12-05T08:06:48.477Z,88.23
2022-12-05T08:09:16.261Z,86.45
2022-12-05T08:11:52.385Z,89.90
2022-12-05T08:14:20.860Z,85.27
2022-12-05T08:16:49.283Z,88.81
2022-12-05T08:19:17.573Z,90.41
2022-12-05T08:21:45.536Z,87.50
2022-12-05T08:24:13.847Z,85.78
2022-12-05T08:26:41.863Z,85.37
2022-12-05T08:29:14.983Z,85.13
2022-12-05T08:31:48.486Z,85.19
2022-12-05T08:34:19.182Z,86.00
2022-12-05T08:36:47.709Z,84.95
2022-12-05T08:39:17.920Z,87.99
2022-12-05T08:41:47.725Z,85.33
2022-12-05T08:44:19.084Z,87.14
2022-12-05T08:46:49.754Z,85.18
2022-12-05T08:49:18.751Z,85.04
2022-12-05T08:51:46.893Z,83.54
2022-12-05T08:54:14.909Z,86.53
2022-12-05T08:56:43.133Z,83.34
2022-12-05T08:59:10.934Z,82.41
2022-12-05T09:01:39.655Z,85.82
2022-12-05T09:04:08.425Z,86.08
2022-12-05T09:06:36.585Z,86.21
2022-12-05T09:09:07.420Z,83.85
2022-12-05T09:11:38.344Z,83.83
2022-12-05T09:14:09.444Z,85.22
2022-12-05T09:16:39.562Z,82.87
2022-12-05T09:19:14.817Z,85.67
2022-12-05T09:21:44.147Z,86.61
2022-12-05T09:24:13.506Z,86.76
2022-12-05T09:26:42.093Z,87.00
2022-12-05T09:29:16.645Z,84.06
2022-12-05T09:31:51.932Z,81.49
2022-12-05T09:34:20.534Z,83.29
2022-12-05T09:37:05.599Z,84.98
2022-12-05T09:39:39.030Z,80.18
2022-12-05T09:42:29.132Z,82.44
2022-12-05T09:45:17.900Z,82.30
2022-12-05T09:48:10.578Z,81.60
2022-12-05T09:50:50.543Z,79.93
2022-12-05T09:53:31.081Z,78.52
2022-12-05T09:56:20.261Z,78.17
2022-12-05T09:58:52.690Z,76.58
2022-12-05T10:01:33.225Z,81.63
2022-12-05T10:04:35.228Z,84.10
2022-12-05T10:07:07.528Z,79.44
2022-12-05T10:09:52.559Z,85.78
2022-12-05T10:12:44.872Z,79.95
2022-12-05T10:15:33.288Z,81.79
2022-12-05T10:18:22.554Z,79.63
2022-12-05T10:21:08.948Z,86.33
2022-12-05T10:23:59.900Z,84.16
2022-12-05T10:26:44.403Z,85.65
2022-12-05T10:29:17.913Z,79.29
2022-12-05T10:31:50.033Z,81.17
2022-12-05T10:34:40.136Z,81.17
2022-12-05T10:37:11.263Z,92.06
2022-12-05T10:39:42.930Z,84.74
2022-12-05T10:42:34.944Z,88.09
2022-12-05T10:45:09.040Z,85.74
2022-12-05T10:47:37.411Z,82.63
2022-12-05T10:50:18.712Z,88.19
2022-12-05T10:52:47.536Z,88.92
2022-12-05T10:55:18.112Z,88.11
2022-12-05T10:58:12.686Z,84.25
2022-12-05T11:00:49.381Z,88.25
2022-12-05T11:03:41.018Z,85.34
2022-12-05T11:06:25.947Z,79.48
2022-12-05T11:09:04.742Z,82.24
2022-12-05T11:11:34.282Z,84.66
2022-12-05T11:14:06.310Z,82.36
2022-12-05T11:16:39.526Z,80.27
2022-12-05T11:19:23.206Z,79.39
2022-12-05T11:21:52.003Z,79.74
2022-12-05T11:24:37.294Z,79.76
2022-12-05T11:27:17.046Z,80.98
2022-12-05T11:30:04.323Z,79.50
2022-12-05T11:32:33.985Z,86.99
2022-12-05T11:35:14.282Z,80.58
2022-12-05T11:37:56.501Z,81.59
2022-12-05T11:40:41.642Z,82.29
2022-12-05T11:43:24.595Z,88.52
2022-12-05T11:46:30.167Z,87.55
2022-12-05T11:49:34.342Z,88.33
2022-12-05T11:52:24.300Z,90.63
2022-12-05T11:55:05.765Z,87.27
2022-12-05T11:57:45.004Z,86.84
2022-12-05T12:00:20.622Z,89.45
2022-12-05T12:03:29.856Z,89.24
2022-12-05T12:06:43.668Z,91.61
2022-12-05T12:09:29.060Z,90.85
2022-12-05T12:12:06.836Z,90.90
2022-12-05T12:14:43.767Z,90.12
2022-12-05T12:17:18.785Z,90.75
2022-12-05T12:20:19.869Z,91.23
2022-12-05T12:23:11.839Z,92.42
2022-12-05T12:26:04.964Z,93.93
2022-12-05T12:28:36.086Z,87.31
2022-12-05T12:31:34.478Z,91.24
2022-12-05T12:34:26.746Z,92.90
2022-12-05T12:37:09.890Z,95.25
2022-12-05T12:39:59.454Z,91.62
2022-12-05T12:42:37.379Z,93.64
2022-12-05T12:45:11.816Z,92.58
2022-12-05T12:47:45.941Z,88.77
2022-12-05T12:50:27.478Z,94.29
2022-12-05T12:53:32.711Z,92.21
2022-12-05T12:56:06.861Z,94.44
2022-12-05T12:58:54.661Z,93.21
2022-12-05T13:01:45.298Z,95.50
2022-12-05T13:04:30.020Z,95.69
2022-12-05T13:07:06.368Z,93.47
2022-12-05T13:09:40.968Z,95.01
2022-12-05T13:12:17.794Z,94.59
2022-12-05T13:15:00.656Z,94.45
2022-12-05T13:17:33.738Z,93.90
2022-12-05T13:20:02.490Z,93.16
2022-12-05T13:22:32.193Z,94.01
2022-12-05T13:25:00.321Z,93.99
2022-12-05T13:27:29.120Z,95.14
2022-12-05T13:30:05.261Z,94.37
2022-12-05T13:32:41.267Z,94.88
2022-12-05T13:35:40.247Z,94.78
2022-12-05T13:38:41.039Z,94.33
2022-12-05T13:41:27.893Z,93.69
2022-12-05T13:44:06.407Z,94.21
2022-12-05T13:46:41.658Z,92.25
2022-12-05T13:49:24.233Z,93.49
2022-12-05T13:51:55.438Z,94.93
2022-12-05T13:54:27.472Z,94.21
2022-12-05T13:57:02.375Z,94.11
2022-12-05T14:00:05.329Z,94.34
2022-12-05T14:02:46.763Z,93.84
2022-12-05T14:05:15.023Z,95.23
2022-12-05T14:07:47.518Z,94.36
2022-12-05T14:10:33.635Z,94.95
2022-12-05T14:13:23.974Z,93.21
2022-12-05T14:15:55.695Z,91.13
2022-12-05T14:18:42.640Z,94.78
2022-12-05T14:21:17.268Z,94.82
2022-12-05T14:24:19.737Z,92.92
2022-12-05T14:26:59.711Z,94.62
2022-12-05T14:29:40.184Z,93.90
2022-12-05T14:32:31.488Z,93.84
2022-12-05T14:35:12.947Z,96.25
2022-12-05T14:37:49.722Z,95.79
2022-12-05T14:40:26.691Z,95.65
2022-12-05T14:42:56.596Z,95.60
2022-12-05T14:45:39.577Z,95.99
2022-12-05T14:48:14.068Z,96.01
2022-12-05T14:50:47.681Z,95.16
2022-12-05T14:53:15.988Z,95.30
2022-12-05T14:55:45.735Z,95.22
2022-12-05T14:58:33.752Z,94.33
2022-12-05T15:01:09.483Z,94.49
2022-12-05T15:03:42.575Z,94.90
2022-12-05T15:06:18.190Z,92.12
2022-12-05T15:08:50.836Z,93.99
2022-12-05T15:11:30.883Z,93.64
2022-12-05T15:14:30.426Z,94.19
2022-12-05T15:17:02.218Z,96.12
2022-12-05T15:19:43.787Z,95.41
2022-12-05T15:22:15.727Z,93.19
2022-12-05T15:24:43.431Z,94.47
2022-12-05T15:27:12.911Z,94.96
2022-12-05T15:29:41.768Z,94.64
2022-12-05T15:32:12.563Z,95.40
2022-12-05T15:34:52.471Z,94.05
2022-12-05T15:37:42.252Z,95.44
2022-12-05T15:40:22.274Z,94.20
2022-12-05T15:42:57.833Z,95.60
2022-12-05T15:45:28.987Z,94.39
2022-12-05T15:48:11.370Z,91.52
2022-12-05T15:50:42.999Z,95.27
2022-12-05T15:53:29.055Z,94.07
2022-12-05T15:56:25.944Z,94.07
2022-12-05T15:59:06.234Z,93.62
2022-12-05T16:01:42.534Z,95.31
2022-12-05T16:04:29.156Z,93.05
2022-12-05T16:07:01.382Z,93.28
2022-12-05T16:09:34.009Z,95.50
2022-12-05T16:12:06.273Z,95.69
2022-12-05T16:17:25.927Z,89.74
2022-12-05T16:19:54.149Z,97.06
2022-12-05T16:22:25.807Z,93.58
2022-12-05T16:25:01.601Z,95.92
2022-12-05T16:27:39.663Z,93.81
2022-12-05T16:30:20.916Z,95.69
2022-12-05T16:32:50.580Z,94.98
2022-12-05T16:35:37.898Z,96.22
2022-12-05T16:38:17.601Z,95.67
2022-12-05T16:40:45.742Z,95.70
2022-12-05T16:43:25.032Z,94.91
2022-12-05T16:45:55.736Z,93.85
2022-12-05T16:48:33.067Z,92.47
2022-12-05T16:51:27.963Z,93.89
2022-12-05T16:53:56.958Z,96.53
2022-12-05T16:56:31.040Z,95.88
2022-12-05T16:59:04.274Z,95.80
2022-12-05T17:01:38.526Z,95.81
2022-12-05T17:04:11.533Z,96.08
2022-12-05T17:06:40.247Z,95.87
2022-12-05T17:09:08.271Z,94.00
2022-12-05T17:11:41.301Z,94.37
2022-12-05T17:14:14.323Z,96.43
2022-12-05T17:16:43.556Z,96.41
2022-12-05T17:19:12.891Z,95.78
2022-12-05T17:21:42.924Z,95.30
2022-12-05T17:24:17.748Z,95.99
2022-12-05T17:26:46.746Z,95.91
2022-12-05T17:29:14.903Z,96.03
2022-12-05T17:31:43.118Z,95.82
2022-12-05T17:34:16.273Z,95.73
2022-12-05T17:36:45.858Z,95.49
2022-12-05T17:39:14.042Z,95.15
2022-12-05T17:41:42.519Z,94.58
2022-12-05T17:44:14.691Z,95.46
2022-12-05T17:46:46.068Z,95.00
2022-12-05T17:49:16.285Z,94.77
2022-12-05T17:52:13.543Z,95.25
2022-12-05T17:54:33.320Z,95.43
2022-12-05T17:57:01.099Z,95.08
2022-12-05T17:59:28.861Z,95.23
2022-12-05T18:02:00.136Z,93.74
2022-12-05T18:04:28.367Z,91.96
2022-12-05T18:06:56.230Z,94.23
2022-12-05T18:09:24.348Z,95.77
2022-12-05T18:11:52.580Z,95.54
2022-12-05T18:14:20.482Z,95.96
2022-12-05T18:16:48.404Z,93.85
2022-12-05T18:19:19.899Z,95.99
2022-12-05T18:21:47.797Z,95.46
2022-12-05T18:24:15.961Z,95.17
2022-12-05T18:26:44.541Z,91.92
2022-12-05T18:29:12.380Z,93.46
2022-12-05T18:31:41.927Z,92.48
2022-12-05T18:34:09.781Z,94.89
2022-12-05T18:36:37.885Z,92.75
2022-12-05T18:39:06.968Z,94.42
2022-12-05T18:41:34.809Z,94.94
2022-12-05T18:44:02.627Z,94.13
2022-12-05T18:46:30.883Z,95.16
2022-12-05T18:49:03.128Z,95.41
2022-12-05T18:51:32.056Z,95.60
2022-12-05T18:53:59.970Z,95.75
2022-12-05T18:56:35.011Z,94.61
2022-12-05T18:59:09.206Z,95.12
2022-12-05T19:01:40.023Z,95.03
2022-12-05T19:04:12.544Z,92.38
2022-12-05T19:06:43.613Z,94.89
2022-12-05T19:09:15.640Z,94.83
2022-12-05T19:11:47.818Z,94.60
2022-12-05T19:14:19.337Z,94.59
2022-12-05T19:16:53.645Z,94.03
2022-12-05T19:19:26.375Z,94.11
2022-12-05T19:21:55.237Z,94.83
2022-12-05T19:24:41.827Z,95.02
2022-12-05T19:27:09.988Z,93.99
2022-12-05T19:29:37.700Z,94.74
2022-12-05T19:32:05.818Z,93.53
2022-12-05T19:34:34.834Z,94.40
2022-12-05T19:37:02.851Z,95.19
2022-12-05T19:39:30.637Z,94.46
2022-12-05T19:41:59.730Z,95.55
2022-12-05T19:44:27.692Z,94.55
2022-12-05T19:46:55.533Z,95.51
2022-12-05T19:49:43.988Z,94.70
2022-12-05T19:52:11.664Z,93.50
2022-12-05T19:54:39.866Z,93.48
2022-12-05T19:57:07.690Z,95.55
2022-12-05T19:59:35.710Z,94.03
2022-12-05T20:02:04.281Z,95.15
2022-12-05T20:04:32.461Z,95.43
2022-12-05T20:07:00.897Z,95.55
2022-12-05T20:09:28.679Z,94.14
2022-12-05T20:11:56.718Z,93.81
2022-12-05T20:14:25.962Z,95.31
2022-12-05T20:16:54.252Z,89.33
2022-12-05T20:19:23.802Z,85.23
2022-12-05T20:21:51.564Z,85.61
2022-12-05T20:24:19.303Z,86.16
2022-12-05T20:26:47.578Z,86.81
2022-12-05T20:29:15.404Z,88.28
2022-12-05T20:31:44.202Z,92.74
2022-12-05T20:34:14.064Z,89.53
2022-12-05T20:36:43.397Z,91.79
2022-12-05T20:39:15.276Z,91.52
2022-12-05T20:41:44.349Z,87.64
2022-12-05T20:44:14.992Z,93.07
2022-12-05T20:46:43.291Z,86.90
2022-12-05T20:49:13.217Z,89.87
2022-12-05T20:51:46.185Z,89.34
2022-12-05T20:54:16.867Z,90.38
2022-12-05T20:56:45.787Z,88.32
2022-12-05T20:59:13.990Z,88.89
2022-12-05T21:01:42.811Z,87.15
2022-12-05T21:04:12.708Z,89.26
2022-12-05T21:06:43.210Z,88.98
2022-12-05T21:09:17.137Z,90.33
2022-12-05T21:11:45.578Z,88.77
2022-12-05T21:14:13.977Z,87.05
2022-12-05T21:16:41.900Z,87.05
2022-12-05T21:19:10.004Z,88.95
2022-12-05T21:21:38.674Z,89.12
2022-12-05T21:24:07.646Z,87.65
2022-12-05T21:26:35.969Z,87.26
2022-12-05T21:29:06.267Z,87.67
2022-12-05T21:31:37.250Z,87.63
2022-12-05T21:34:08.715Z,87.49
2022-12-05T21:36:37.206Z,88.61
2022-12-05T21:39:07.280Z,88.24
2022-12-05T21:41:35.375Z,89.12
2022-12-05T21:44:03.208Z,88.59
2022-12-05T21:46:31.840Z,88.47
2022-12-05T21:48:59.855Z,90.35
2022-12-05T21:51:31.412Z,94.28
2022-12-05T21:53:59.518Z,92.01
2022-12-05T21:56:27.225Z,93.10
2022-12-05T21:58:55.091Z,91.81
2022-12-05T22:01:25.910Z,91.24
2022-12-05T22:03:56.373Z,88.31
2022-12-05T22:06:24.242Z,91.47
2022-12-05T22:08:52.124Z,89.58
2022-12-05T22:11:23.254Z,87.15
2022-12-05T22:13:52.006Z,93.61
2022-12-05T22:16:27.775Z,91.60
2022-12-05T22:19:00.611Z,87.66
2022-12-05T22:21:29.213Z,89.06
2022-12-05T22:23:57.113Z,92.37
2022-12-05T22:26:26.265Z,89.90
2022-12-05T22:28:57.370Z,87.46
2022-12-05T22:31:25.591Z,87.24
2022-12-05T22:33:53.472Z,87.80
2022-12-05T22:36:21.904Z,89.30
2022-12-05T22:38:49.792Z,91.38
2022-12-05T22:41:21.007Z,86.72
2022-12-05T22:43:50.637Z,90.51
2022-12-05T22:46:20.356Z,87.98
2022-12-05T22:48:49.710Z,88.16
2022-12-05T22:51:19.638Z,90.76
2022-12-05T22:53:50.053Z,92.47
2022-12-05T22:56:19.957Z,88.99
2022-12-05T22:58:48.226Z,89.82
2022-12-05T23:01:18.861Z,90.48
2022-12-05T23:03:54.781Z,89.79
2022-12-05T23:06:22.786Z,88.35
2022-12-05T23:08:51.079Z,88.13
2022-12-05T23:11:20.490Z,87.91
2022-12-05T23:13:49.153Z,87.90
2022-12-05T23:16:23.894Z,87.38
2022-12-05T23:18:54.925Z,87.14
2022-12-05T23:21:33.733Z,87.03
2022-12-05T23:24:04.843Z,87.14
2022-12-05T23:26:36.563Z,87.18
2022-12-05T23:29:04.889Z,87.30
2022-12-05T23:31:33.602Z,87.46
2022-12-05T23:34:03.921Z,89.19
2022-12-05T23:36:33.543Z,87.65
2022-12-05T23:39:01.819Z,89.62
2022-12-05T23:41:30.043Z,88.17
2022-12-05T23:43:58.382Z,87.79
2022-12-05T23:46:30.306Z,89.43
2022-12-05T23:48:58.422Z,88.45
2022-12-05T23:51:31.409Z,87.22
2022-12-05T23:54:01.970Z,90.65
2022-12-05T23:56:32.790Z,89.85
2022-12-05T23:59:02.563Z,93.53
